createdAt,value
2016-07-05T00:00:58.725Z,0
2016-07-05T00:01:59.939Z,0
2016-07-05T00:02:58.710Z,0
2016-07-05T00:03:59.309Z,0
2016-07-05T00:04:58.680Z,0
2016-07-05T00:05:59.292Z,0
2016-07-05T00:06:58.672Z,0
2016-07-05T00:07:59.264Z,0
2016-07-05T00:08:59.254Z,0
2016-07-05T00:09:59.241Z,0
2016-07-05T00:10:59.240Z,0
2016-07-05T00:11:59.200Z,0
2016-07-05T00:12:58.576Z,0
2016-07-05T00:13:59.796Z,0
2016-07-05T00:14:59.814Z,0
2016-07-05T00:15:58.561Z,0
2016-07-05T00:16:59.161Z,0
2016-07-05T00:17:59.142Z,0
2016-07-05T00:18:59.147Z,0
2016-07-05T00:19:59.120Z,0
2016-07-05T00:20:58.524Z,0
2016-07-05T00:21:58.469Z,0
2016-07-05T00:22:59.086Z,0
2016-07-05T00:23:59.079Z,0
2016-07-05T00:24:59.055Z,0
2016-07-05T00:25:58.431Z,0
2016-07-05T00:26:59.021Z,0
2016-07-05T00:27:58.403Z,0
2016-07-05T00:28:59.613Z,0
2016-07-05T00:29:58.970Z,0
2016-07-05T00:30:58.988Z,0
2016-07-05T00:31:58.984Z,0
2016-07-05T00:32:58.361Z,0
2016-07-05T00:33:59.561Z,0
2016-07-05T00:34:58.947Z,0
2016-07-05T00:35:58.933Z,0
2016-07-05T00:36:58.924Z,0
2016-07-05T00:37:58.914Z,0
2016-07-05T00:38:58.898Z,0
2016-07-05T00:39:58.888Z,0
2016-07-05T00:40:58.252Z,0
2016-07-05T00:41:58.863Z,0
2016-07-05T00:42:58.844Z,0
2016-07-05T00:43:58.194Z,0
2016-07-05T00:44:58.211Z,0
2016-07-05T00:45:59.429Z,0
2016-07-05T00:46:58.192Z,0
2016-07-05T00:47:58.794Z,0
2016-07-05T00:48:59.384Z,0
2016-07-05T00:49:58.152Z,0
2016-07-05T00:50:58.153Z,0
2016-07-05T00:51:58.128Z,0
2016-07-05T00:52:58.717Z,0
2016-07-05T00:53:59.308Z,0
2016-07-05T00:54:58.065Z,0
2016-07-05T00:55:58.719Z,0
2016-07-05T00:56:58.067Z,0
2016-07-05T00:57:58.672Z,0
2016-07-05T00:58:58.041Z,0
2016-07-05T00:59:58.646Z,0
2016-07-05T01:00:58.019Z,0
2016-07-05T01:01:58.613Z,0
2016-07-05T01:02:57.976Z,0
2016-07-05T01:03:57.957Z,0
2016-07-05T01:04:58.555Z,0
2016-07-05T01:05:57.925Z,0
2016-07-05T01:06:57.933Z,0
2016-07-05T01:07:57.924Z,0
2016-07-05T01:08:57.895Z,0
2016-07-05T01:09:57.878Z,0
2016-07-05T01:10:58.525Z,0
2016-07-05T01:11:57.878Z,0
2016-07-05T01:12:58.483Z,0
2016-07-05T01:13:57.850Z,0
2016-07-05T01:14:57.835Z,0
2016-07-05T01:15:57.829Z,0
2016-07-05T01:16:58.439Z,0
2016-07-05T01:17:58.421Z,0
2016-07-05T01:18:57.798Z,0
2016-07-05T01:19:58.397Z,0
2016-07-05T01:20:58.381Z,0
2016-07-05T01:21:58.378Z,0
2016-07-05T01:22:57.746Z,0
2016-07-05T01:23:57.777Z,0
2016-07-05T01:24:59.561Z,0
2016-07-05T01:25:58.315Z,0
2016-07-05T01:26:58.306Z,0
2016-07-05T01:27:58.906Z,0
2016-07-05T01:28:57.677Z,0
2016-07-05T01:29:58.273Z,0
2016-07-05T01:30:57.638Z,0
2016-07-05T01:31:57.625Z,0
2016-07-05T01:32:57.606Z,0
2016-07-05T01:33:58.209Z,0
2016-07-05T01:34:58.202Z,0
2016-07-05T01:35:58.192Z,0
2016-07-05T01:36:58.854Z,0
2016-07-05T01:37:58.179Z,0
2016-07-05T01:38:58.159Z,0
2016-07-05T01:39:58.155Z,0
2016-07-05T01:40:58.123Z,0
2016-07-05T01:41:58.742Z,0
2016-07-05T01:42:57.505Z,0
2016-07-05T01:43:57.488Z,0
2016-07-05T01:44:57.465Z,0
2016-07-05T01:45:58.699Z,0
2016-07-05T01:46:58.069Z,0
2016-07-05T01:47:57.443Z,0
2016-07-05T01:48:58.047Z,0
2016-07-05T01:49:58.029Z,0
2016-07-05T01:50:57.407Z,0
2016-07-05T01:51:58.010Z,0
2016-07-05T01:52:57.430Z,0
2016-07-05T01:53:57.986Z,0
2016-07-05T01:54:58.590Z,0
2016-07-05T01:55:58.570Z,0
2016-07-05T01:56:57.953Z,0
2016-07-05T01:57:57.370Z,0
2016-07-05T01:58:57.928Z,0
2016-07-05T01:59:58.004Z,0
2016-07-05T02:00:57.589Z,0
2016-07-05T02:01:57.621Z,0
2016-07-05T02:02:57.384Z,0
2016-07-05T02:03:57.848Z,0
2016-07-05T02:04:57.971Z,0
2016-07-05T02:05:58.067Z,0
2016-07-05T02:06:58.221Z,0
2016-07-05T02:07:58.619Z,0
2016-07-05T02:08:57.866Z,0
2016-07-05T02:09:57.160Z,0
2016-07-05T02:10:58.383Z,0
2016-07-05T02:11:57.149Z,0
2016-07-05T02:12:57.751Z,0
2016-07-05T02:13:57.125Z,0
2016-07-05T02:14:57.322Z,0
2016-07-05T02:15:57.716Z,0
2016-07-05T02:16:57.091Z,0
2016-07-05T02:17:57.083Z,0
2016-07-05T02:18:58.297Z,0
2016-07-05T02:19:57.675Z,0
2016-07-05T02:20:57.047Z,0
2016-07-05T02:21:57.042Z,0
2016-07-05T02:22:57.640Z,0
2016-07-05T02:23:57.010Z,0
2016-07-05T02:24:56.998Z,0
2016-07-05T02:25:56.985Z,0
2016-07-05T02:26:56.970Z,0
2016-07-05T02:27:57.557Z,0
2016-07-05T02:28:56.939Z,0
2016-07-05T02:29:56.922Z,0
2016-07-05T02:30:56.907Z,0
2016-07-05T02:31:56.900Z,0
2016-07-05T02:32:58.120Z,0
2016-07-05T02:33:57.491Z,0
2016-07-05T02:34:56.864Z,0
2016-07-05T02:35:57.470Z,0
2016-07-05T02:36:57.452Z,0
2016-07-05T02:37:56.834Z,0
2016-07-05T02:38:57.430Z,0
2016-07-05T02:39:56.802Z,0
2016-07-05T02:40:57.418Z,0
2016-07-05T02:41:57.427Z,0
2016-07-05T02:42:57.433Z,0
2016-07-05T02:43:57.385Z,0
2016-07-05T02:44:56.751Z,4
2016-07-05T02:45:56.732Z,4
2016-07-05T02:46:57.333Z,4
2016-07-05T02:47:57.954Z,0
2016-07-05T02:48:56.764Z,4
2016-07-05T02:49:56.691Z,4
2016-07-05T02:50:57.297Z,4
2016-07-05T02:51:57.305Z,4
2016-07-05T02:52:57.281Z,4
2016-07-05T02:53:57.269Z,4
2016-07-05T02:54:56.658Z,8
2016-07-05T02:55:57.868Z,4
2016-07-05T02:56:56.597Z,8
2016-07-05T02:57:57.815Z,8
2016-07-05T02:58:57.187Z,12
2016-07-05T02:59:57.172Z,8
2016-07-05T03:00:56.559Z,8
2016-07-05T03:01:57.789Z,12
2016-07-05T03:02:57.791Z,12
2016-07-05T03:03:57.140Z,12
2016-07-05T03:04:57.758Z,16
2016-07-05T03:05:58.343Z,16
2016-07-05T03:06:57.117Z,20
2016-07-05T03:07:56.465Z,24
2016-07-05T03:08:57.088Z,28
2016-07-05T03:09:57.093Z,28
2016-07-05T03:10:57.686Z,32
2016-07-05T03:11:57.685Z,32
2016-07-05T03:12:57.059Z,36
2016-07-05T03:13:57.102Z,36
2016-07-05T03:14:57.049Z,44
2016-07-05T03:15:57.015Z,44
2016-07-05T03:16:57.008Z,52
2016-07-05T03:17:57.611Z,56
2016-07-05T03:18:56.364Z,60
2016-07-05T03:19:56.976Z,64
2016-07-05T03:20:56.366Z,72
2016-07-05T03:21:57.554Z,76
2016-07-05T03:22:56.340Z,84
2016-07-05T03:23:56.335Z,88
2016-07-05T03:24:56.918Z,92
2016-07-05T03:25:56.292Z,100
2016-07-05T03:26:56.886Z,104
2016-07-05T03:27:56.871Z,112
2016-07-05T03:28:56.884Z,120
2016-07-05T03:29:56.861Z,128
2016-07-05T03:30:56.229Z,144
2016-07-05T03:31:56.840Z,152
2016-07-05T03:32:56.832Z,168
2016-07-05T03:33:56.807Z,180
2016-07-05T03:34:57.399Z,196
2016-07-05T03:35:56.775Z,212
2016-07-05T03:36:56.164Z,228
2016-07-05T03:37:56.148Z,248
2016-07-05T03:38:56.761Z,272
2016-07-05T03:39:56.733Z,292
2016-07-05T03:40:57.324Z,312
2016-07-05T03:41:56.704Z,324
2016-07-05T03:42:56.690Z,348
2016-07-05T03:43:56.682Z,380
2016-07-05T03:44:56.671Z,404
2016-07-05T03:45:57.277Z,412
2016-07-05T03:46:56.018Z,420
2016-07-05T03:47:57.274Z,436
2016-07-05T03:48:57.241Z,452
2016-07-05T03:49:56.629Z,464
2016-07-05T03:50:57.229Z,476
2016-07-05T03:51:55.976Z,496
2016-07-05T03:52:56.575Z,512
2016-07-05T03:53:55.956Z,528
2016-07-05T03:54:56.577Z,536
2016-07-05T03:55:56.000Z,540
2016-07-05T03:56:56.551Z,548
2016-07-05T03:57:56.567Z,560
2016-07-05T03:58:57.179Z,568
2016-07-05T03:59:57.126Z,584
2016-07-05T04:00:56.503Z,604
2016-07-05T04:01:55.870Z,608
2016-07-05T04:02:57.100Z,612
2016-07-05T04:03:56.468Z,620
2016-07-05T04:04:56.474Z,648
2016-07-05T04:05:55.821Z,672
2016-07-05T04:06:55.800Z,696
2016-07-05T04:07:56.464Z,708
2016-07-05T04:08:55.809Z,728
2016-07-05T04:09:56.393Z,748
2016-07-05T04:10:55.791Z,764
2016-07-05T04:11:55.756Z,764
2016-07-05T04:12:56.985Z,780
2016-07-05T04:13:56.357Z,824
2016-07-05T04:14:56.553Z,864
2016-07-05T04:15:56.341Z,888
2016-07-05T04:16:55.711Z,900
2016-07-05T04:17:56.316Z,920
2016-07-05T04:18:55.691Z,952
2016-07-05T04:19:56.292Z,976
2016-07-05T04:20:55.670Z,988
2016-07-05T04:21:55.636Z,1004
2016-07-05T04:22:56.278Z,1040
2016-07-05T04:23:55.631Z,1064
2016-07-05T04:24:56.859Z,1080
2016-07-05T04:25:56.235Z,1108
2016-07-05T04:26:56.219Z,1124
2016-07-05T04:27:56.205Z,1140
2016-07-05T04:28:56.253Z,1156
2016-07-05T04:29:56.803Z,1188
2016-07-05T04:30:56.168Z,1220
2016-07-05T04:31:55.536Z,1276
2016-07-05T04:32:56.133Z,1312
2016-07-05T04:33:56.128Z,1332
2016-07-05T04:34:55.503Z,1348
2016-07-05T04:35:56.720Z,1376
2016-07-05T04:36:56.100Z,1416
2016-07-05T04:37:56.085Z,1456
2016-07-05T04:38:55.476Z,1480
2016-07-05T04:39:55.446Z,1524
2016-07-05T04:40:55.424Z,1588
2016-07-05T04:41:55.427Z,1628
2016-07-05T04:42:56.722Z,1660
2016-07-05T04:43:56.676Z,1664
2016-07-05T04:44:55.393Z,1700
2016-07-05T04:45:55.992Z,1716
2016-07-05T04:46:55.985Z,1788
2016-07-05T04:47:55.978Z,1856
2016-07-05T04:48:55.341Z,1928
2016-07-05T04:49:55.337Z,1956
2016-07-05T04:50:55.934Z,1992
2016-07-05T04:51:55.914Z,2076
2016-07-05T04:52:55.903Z,2120
2016-07-05T04:53:55.910Z,2128
2016-07-05T04:54:57.133Z,2120
2016-07-05T04:55:55.283Z,2128
2016-07-05T04:56:56.493Z,2120
2016-07-05T04:57:55.254Z,2124
2016-07-05T04:58:55.251Z,2120
2016-07-05T04:59:55.843Z,2152
2016-07-05T05:00:55.227Z,2184
2016-07-05T05:01:55.214Z,2240
2016-07-05T05:02:55.247Z,2260
2016-07-05T05:03:55.194Z,2216
2016-07-05T05:04:55.175Z,2164
2016-07-05T05:05:55.168Z,2072
2016-07-05T05:06:55.144Z,2004
2016-07-05T05:07:55.757Z,1968
2016-07-05T05:08:55.132Z,1936
2016-07-05T05:09:55.108Z,1916
2016-07-05T05:10:55.115Z,1848
2016-07-05T05:11:55.092Z,1736
2016-07-05T05:12:55.701Z,1756
2016-07-05T05:13:55.695Z,1808
2016-07-05T05:14:55.676Z,1900
2016-07-05T05:15:55.672Z,2052
2016-07-05T05:16:55.652Z,2012
2016-07-05T05:17:56.261Z,1844
2016-07-05T05:18:55.021Z,1732
2016-07-05T05:19:55.015Z,1776
2016-07-05T05:20:55.672Z,1752
2016-07-05T05:21:55.599Z,1696
2016-07-05T05:22:55.585Z,1764
2016-07-05T05:23:54.963Z,1828
2016-07-05T05:24:55.573Z,1880
2016-07-05T05:25:56.162Z,1972
2016-07-05T05:26:56.786Z,2060
2016-07-05T05:27:54.932Z,2028
2016-07-05T05:28:54.918Z,1944
2016-07-05T05:29:54.907Z,1900
2016-07-05T05:30:54.893Z,1972
2016-07-05T05:31:54.873Z,2036
2016-07-05T05:32:55.485Z,2152
2016-07-05T05:33:55.446Z,2188
2016-07-05T05:34:55.449Z,2160
2016-07-05T05:35:54.849Z,2096
2016-07-05T05:36:55.440Z,1976
2016-07-05T05:37:56.013Z,1860
2016-07-05T05:38:55.451Z,1812
2016-07-05T05:39:55.387Z,1824
2016-07-05T05:40:55.396Z,1924
2016-07-05T05:41:54.771Z,2112
2016-07-05T05:42:55.369Z,2180
2016-07-05T05:43:55.362Z,2180
2016-07-05T05:44:55.357Z,2168
2016-07-05T05:45:55.343Z,2164
2016-07-05T05:46:55.315Z,2188
2016-07-05T05:47:54.676Z,2212
2016-07-05T05:48:55.925Z,2232
2016-07-05T05:49:54.691Z,2252
2016-07-05T05:50:55.280Z,2256
2016-07-05T05:51:54.667Z,2272
2016-07-05T05:52:55.258Z,2272
2016-07-05T05:53:55.244Z,2256
2016-07-05T05:54:54.634Z,2248
2016-07-05T05:55:54.613Z,2256
2016-07-05T05:56:54.610Z,2292
2016-07-05T05:57:55.207Z,2320
2016-07-05T05:58:54.583Z,2352
2016-07-05T05:59:55.796Z,2368
2016-07-05T06:00:54.557Z,2376
2016-07-05T06:01:54.546Z,2408
2016-07-05T06:02:54.538Z,2388
2016-07-05T06:03:54.511Z,2408
2016-07-05T06:04:55.750Z,2448
2016-07-05T06:05:54.494Z,2472
2016-07-05T06:06:55.109Z,2528
2016-07-05T06:07:55.714Z,2552
2016-07-05T06:08:55.091Z,2928
2016-07-05T06:09:55.075Z,3124
2016-07-05T06:10:54.437Z,3276
2016-07-05T06:11:54.423Z,3268
2016-07-05T06:12:54.433Z,3496
2016-07-05T06:13:55.643Z,3264
2016-07-05T06:14:54.594Z,3176
2016-07-05T06:15:55.001Z,3304
2016-07-05T06:16:54.382Z,3744
2016-07-05T06:17:55.595Z,4844
2016-07-05T06:18:54.972Z,7636
2016-07-05T06:19:54.975Z,7004
2016-07-05T06:20:54.962Z,7884
2016-07-05T06:21:54.950Z,5212
2016-07-05T06:22:54.331Z,11048
2016-07-05T06:23:54.314Z,14816
2016-07-05T06:24:56.136Z,18304
2016-07-05T06:25:54.892Z,12388
2016-07-05T06:26:54.902Z,11416
2016-07-05T06:27:55.503Z,10252
2016-07-05T06:28:55.503Z,4924
2016-07-05T06:29:54.243Z,5404
2016-07-05T06:30:54.903Z,5784
2016-07-05T06:31:54.231Z,5488
2016-07-05T06:32:54.832Z,5180
2016-07-05T06:33:54.216Z,4304
2016-07-05T06:34:54.215Z,4388
2016-07-05T06:35:55.408Z,4464
2016-07-05T06:36:54.794Z,5184
2016-07-05T06:37:56.088Z,4208
2016-07-05T06:38:55.369Z,4228
2016-07-05T06:39:54.751Z,3484
2016-07-05T06:40:55.346Z,4108
2016-07-05T06:41:54.107Z,3732
2016-07-05T06:42:55.331Z,3604
2016-07-05T06:43:54.717Z,2840
2016-07-05T06:44:54.096Z,3368
2016-07-05T06:45:54.065Z,3492
2016-07-05T06:46:54.667Z,3472
2016-07-05T06:47:54.667Z,3732
2016-07-05T06:48:55.270Z,3684
2016-07-05T06:49:54.647Z,3812
2016-07-05T06:50:54.018Z,15256
2016-07-05T06:51:54.623Z,3684
2016-07-05T06:52:55.245Z,11128
2016-07-05T06:53:54.004Z,17216
2016-07-05T06:54:54.596Z,4348
2016-07-05T06:55:55.199Z,19264
2016-07-05T06:56:53.978Z,3920
2016-07-05T06:57:54.570Z,13536
2016-07-05T06:58:54.563Z,8060
2016-07-05T06:59:53.949Z,5620
2016-07-05T07:00:55.159Z,2928
2016-07-05T07:01:54.525Z,2688
2016-07-05T07:02:55.205Z,3204
2016-07-05T07:03:55.774Z,3156
2016-07-05T07:04:55.161Z,3048
2016-07-05T07:05:55.124Z,3112
2016-07-05T07:06:55.128Z,3076
2016-07-05T07:07:54.469Z,3124
2016-07-05T07:08:54.453Z,3152
2016-07-05T07:09:54.467Z,3172
2016-07-05T07:10:53.833Z,3160
2016-07-05T07:11:54.460Z,3204
2016-07-05T07:12:53.827Z,3256
2016-07-05T07:13:53.814Z,3168
2016-07-05T07:14:53.789Z,3228
2016-07-05T07:15:55.007Z,6324
2016-07-05T07:16:54.392Z,15008
2016-07-05T07:17:54.373Z,24448
2016-07-05T07:18:53.778Z,33280
2016-07-05T07:19:53.761Z,47296
2016-07-05T07:20:53.733Z,39456
2016-07-05T07:21:54.335Z,38080
2016-07-05T07:22:54.992Z,36480
2016-07-05T07:23:53.705Z,42720
2016-07-05T07:24:54.419Z,45568
2016-07-05T07:25:54.312Z,46048
2016-07-05T07:26:54.311Z,25888
2016-07-05T07:27:54.914Z,42016
2016-07-05T07:28:53.670Z,40256
2016-07-05T07:29:54.293Z,38080
2016-07-05T07:30:54.889Z,38720
2016-07-05T07:31:53.670Z,41632
2016-07-05T07:32:54.282Z,45504
2016-07-05T07:33:53.656Z,51104
2016-07-05T07:34:54.935Z,42912
2016-07-05T07:35:54.880Z,28800
2016-07-05T07:36:54.873Z,11712
2016-07-05T07:37:55.497Z,12548
2016-07-05T07:38:53.658Z,10028
2016-07-05T07:39:54.865Z,8476
2016-07-05T07:40:54.851Z,8172
2016-07-05T07:41:54.848Z,8000
2016-07-05T07:42:54.231Z,7924
2016-07-05T07:43:53.620Z,7928
2016-07-05T07:44:54.224Z,7996
2016-07-05T07:45:54.209Z,7820
2016-07-05T07:46:55.416Z,7480
2016-07-05T07:47:54.810Z,7452
2016-07-05T07:48:53.551Z,7868
2016-07-05T07:49:54.174Z,8484
2016-07-05T07:50:54.769Z,8532
2016-07-05T07:51:54.167Z,8784
2016-07-05T07:52:54.139Z,9588
2016-07-05T07:53:54.768Z,10388
2016-07-05T07:54:54.116Z,10556
2016-07-05T07:55:54.099Z,9864
2016-07-05T07:56:53.506Z,9476
2016-07-05T07:57:54.116Z,10856
2016-07-05T07:58:54.105Z,10624
2016-07-05T07:59:54.098Z,9100
2016-07-05T08:00:53.479Z,8660
2016-07-05T08:01:54.080Z,9784
2016-07-05T08:02:54.061Z,10024
2016-07-05T08:03:54.067Z,9840
2016-07-05T08:04:54.059Z,9716
2016-07-05T08:05:54.044Z,9708
2016-07-05T08:06:54.038Z,9028
2016-07-05T08:07:54.655Z,9288
2016-07-05T08:08:54.033Z,9844
2016-07-05T08:09:54.020Z,9204
2016-07-05T08:10:54.008Z,8792
2016-07-05T08:11:54.613Z,9204
2016-07-05T08:12:53.373Z,9308
2016-07-05T08:13:53.969Z,8564
2016-07-05T08:14:53.572Z,7680
2016-07-05T08:15:53.352Z,7504
2016-07-05T08:16:53.348Z,9140
2016-07-05T08:17:53.944Z,22304
2016-07-05T08:18:53.323Z,15560
2016-07-05T08:19:53.320Z,18944
2016-07-05T08:20:53.926Z,23488
2016-07-05T08:21:53.301Z,25120
2016-07-05T08:22:53.903Z,18784
2016-07-05T08:23:55.123Z,15748
2016-07-05T08:24:54.481Z,13140
2016-07-05T08:25:53.875Z,12664
2016-07-05T08:26:53.264Z,10280
2016-07-05T08:27:53.866Z,13860
2016-07-05T08:28:53.857Z,16480
2016-07-05T08:29:53.854Z,16576
2016-07-05T08:30:53.835Z,11628
2016-07-05T08:31:54.455Z,8756
2016-07-05T08:32:54.447Z,10512
2016-07-05T08:33:53.821Z,11784
2016-07-05T08:34:53.210Z,11208
2016-07-05T08:35:53.196Z,10344
2016-07-05T08:36:53.807Z,11160
2016-07-05T08:37:53.177Z,10320
2016-07-05T08:38:53.791Z,11584
2016-07-05T08:39:53.170Z,11504
2016-07-05T08:40:53.154Z,11420
2016-07-05T08:41:53.785Z,10828
2016-07-05T08:42:53.764Z,11592
2016-07-05T08:43:53.136Z,12416
2016-07-05T08:44:54.353Z,12564
2016-07-05T08:45:53.755Z,12160
2016-07-05T08:46:54.343Z,11712
2016-07-05T08:47:53.089Z,10172
2016-07-05T08:48:53.724Z,8592
2016-07-05T08:49:54.311Z,8892
2016-07-05T08:50:53.683Z,8156
2016-07-05T08:51:53.076Z,7776
2016-07-05T08:52:53.080Z,5476
2016-07-05T08:53:53.053Z,6152
2016-07-05T08:54:53.643Z,5976
2016-07-05T08:55:53.656Z,5252
2016-07-05T08:56:53.652Z,4132
2016-07-05T08:57:53.631Z,2632
2016-07-05T08:58:53.613Z,2664
2016-07-05T08:59:54.226Z,3352
2016-07-05T09:00:53.627Z,3740
2016-07-05T09:01:52.979Z,2500
2016-07-05T09:02:54.182Z,2156
2016-07-05T09:03:52.990Z,2564
2016-07-05T09:04:53.606Z,3944
2016-07-05T09:05:53.546Z,6716
2016-07-05T09:06:53.560Z,8232
2016-07-05T09:07:54.167Z,4776
2016-07-05T09:08:52.980Z,2904
2016-07-05T09:09:54.149Z,2736
2016-07-05T09:10:52.882Z,3056
2016-07-05T09:11:53.502Z,3488
2016-07-05T09:12:54.094Z,4476
2016-07-05T09:13:52.865Z,6664
2016-07-05T09:14:54.162Z,10048
2016-07-05T09:15:52.879Z,9636
2016-07-05T09:16:52.834Z,8748
2016-07-05T09:17:52.843Z,8008
2016-07-05T09:18:54.704Z,6444
2016-07-05T09:19:52.797Z,5528
2016-07-05T09:20:53.397Z,5356
2016-07-05T09:21:53.404Z,5568
2016-07-05T09:22:53.387Z,4828
2016-07-05T09:23:54.029Z,4540
2016-07-05T09:24:52.751Z,4980
2016-07-05T09:25:52.743Z,6744
2016-07-05T09:26:52.743Z,6976
2016-07-05T09:27:53.953Z,7424
2016-07-05T09:28:53.335Z,6676
2016-07-05T09:29:53.372Z,5772
2016-07-05T09:30:53.922Z,7340
2016-07-05T09:31:53.308Z,9676
2016-07-05T09:32:52.696Z,13336
2016-07-05T09:33:53.300Z,12428
2016-07-05T09:34:53.297Z,10976
2016-07-05T09:35:52.671Z,9248
2016-07-05T09:36:53.265Z,6804
2016-07-05T09:37:53.250Z,6696
2016-07-05T09:38:53.858Z,6748
2016-07-05T09:39:53.226Z,6560
2016-07-05T09:40:52.609Z,6716
2016-07-05T09:41:53.191Z,7540
2016-07-05T09:42:52.587Z,5936
2016-07-05T09:43:52.580Z,6648
2016-07-05T09:44:52.566Z,6916
2016-07-05T09:45:53.178Z,6608
2016-07-05T09:46:53.782Z,5484
2016-07-05T09:47:53.148Z,6132
2016-07-05T09:48:53.148Z,7128
2016-07-05T09:49:52.493Z,9584
2016-07-05T09:50:53.122Z,11576
2016-07-05T09:51:52.504Z,7892
2016-07-05T09:52:52.497Z,4748
2016-07-05T09:53:53.100Z,4120
2016-07-05T09:54:53.100Z,4392
2016-07-05T09:55:52.466Z,5328
2016-07-05T09:56:52.455Z,6448
2016-07-05T09:57:53.055Z,5288
2016-07-05T09:58:53.049Z,5796
2016-07-05T09:59:53.023Z,6272
2016-07-05T10:00:52.400Z,6892
2016-07-05T10:01:53.005Z,7412
2016-07-05T10:02:53.018Z,8720
2016-07-05T10:03:53.616Z,8376
2016-07-05T10:04:53.611Z,7632
2016-07-05T10:05:53.590Z,7888
2016-07-05T10:06:52.977Z,10840
2016-07-05T10:07:52.961Z,13112
2016-07-05T10:08:53.568Z,15588
2016-07-05T10:09:52.315Z,17952
2016-07-05T10:10:52.940Z,18912
2016-07-05T10:11:52.932Z,15808
2016-07-05T10:12:52.907Z,15044
2016-07-05T10:13:52.904Z,13196
2016-07-05T10:14:53.913Z,12756
2016-07-05T10:15:52.897Z,12388
2016-07-05T10:16:52.886Z,11708
2016-07-05T10:17:52.874Z,10640
2016-07-05T10:18:53.465Z,9636
2016-07-05T10:19:52.847Z,9132
2016-07-05T10:20:52.849Z,8820
2016-07-05T10:21:53.446Z,10660
2016-07-05T10:22:53.437Z,12756
2016-07-05T10:23:52.199Z,15120
2016-07-05T10:24:52.814Z,15020
2016-07-05T10:25:52.796Z,15428
2016-07-05T10:26:53.403Z,12816
2016-07-05T10:27:52.832Z,11840
2016-07-05T10:28:52.767Z,10760
2016-07-05T10:29:52.150Z,12052
2016-07-05T10:30:53.362Z,12656
2016-07-05T10:31:53.363Z,10772
2016-07-05T10:32:52.122Z,12968
2016-07-05T10:33:53.355Z,12476
2016-07-05T10:34:52.724Z,11832
2016-07-05T10:35:52.716Z,10872
2016-07-05T10:36:53.319Z,10132
2016-07-05T10:37:52.695Z,10316
2016-07-05T10:38:52.066Z,10768
2016-07-05T10:39:52.673Z,10172
2016-07-05T10:40:52.725Z,8584
2016-07-05T10:41:52.056Z,8140
2016-07-05T10:42:52.657Z,7756
2016-07-05T10:43:52.646Z,7240
2016-07-05T10:44:53.247Z,7196
2016-07-05T10:45:53.242Z,5988
2016-07-05T10:46:52.621Z,6092
2016-07-05T10:47:52.605Z,4420
2016-07-05T10:48:52.593Z,4928
2016-07-05T10:49:52.586Z,7736
2016-07-05T10:50:51.968Z,7528
2016-07-05T10:51:53.236Z,6064
2016-07-05T10:52:52.564Z,4784
2016-07-05T10:53:52.554Z,5580
2016-07-05T10:54:51.929Z,6268
2016-07-05T10:55:52.536Z,6004
2016-07-05T10:56:51.915Z,5348
2016-07-05T10:57:51.906Z,3740
2016-07-05T10:58:52.499Z,3500
2016-07-05T10:59:51.883Z,3408
2016-07-05T11:00:52.486Z,3484
2016-07-05T11:01:51.844Z,3472
2016-07-05T11:02:52.447Z,4224
2016-07-05T11:03:51.849Z,4824
2016-07-05T11:04:51.835Z,5656
2016-07-05T11:05:52.435Z,5804
2016-07-05T11:06:52.433Z,5248
2016-07-05T11:07:53.701Z,4416
2016-07-05T11:08:51.796Z,4476
2016-07-05T11:09:51.792Z,4712
2016-07-05T11:10:52.386Z,5016
2016-07-05T11:11:51.767Z,5480
2016-07-05T11:12:52.376Z,5492
2016-07-05T11:13:51.746Z,4164
2016-07-05T11:14:52.346Z,4208
2016-07-05T11:15:52.967Z,5204
2016-07-05T11:16:52.337Z,5568
2016-07-05T11:17:52.320Z,5748
2016-07-05T11:18:52.313Z,6248
2016-07-05T11:19:52.927Z,6468
2016-07-05T11:20:52.908Z,6308
2016-07-05T11:21:52.898Z,6364
2016-07-05T11:22:51.663Z,5940
2016-07-05T11:23:52.270Z,6328
2016-07-05T11:24:51.617Z,6768
2016-07-05T11:25:52.241Z,6124
2016-07-05T11:26:52.846Z,5672
2016-07-05T11:27:52.205Z,5492
2016-07-05T11:28:52.824Z,5088
2016-07-05T11:29:51.593Z,4468
2016-07-05T11:30:52.194Z,3948
2016-07-05T11:31:51.571Z,3488
2016-07-05T11:32:52.183Z,3236
2016-07-05T11:33:52.168Z,3156
2016-07-05T11:34:52.166Z,2840
2016-07-05T11:35:51.536Z,2552
2016-07-05T11:36:52.142Z,2528
2016-07-05T11:37:52.111Z,2628
2016-07-05T11:38:52.117Z,2620
2016-07-05T11:39:51.519Z,2924
2016-07-05T11:40:51.503Z,3396
2016-07-05T11:41:52.713Z,3036
2016-07-05T11:42:52.699Z,2816
2016-07-05T11:43:53.315Z,2952
2016-07-05T11:44:52.677Z,2804
2016-07-05T11:45:51.435Z,3488
2016-07-05T11:46:52.045Z,2996
2016-07-05T11:47:52.652Z,2336
2016-07-05T11:48:53.249Z,2576
2016-07-05T11:49:51.402Z,3352
2016-07-05T11:50:52.002Z,2464
2016-07-05T11:51:51.378Z,2304
2016-07-05T11:52:52.602Z,2200
2016-07-05T11:53:52.584Z,2176
2016-07-05T11:54:51.348Z,2084
2016-07-05T11:55:51.341Z,2380
2016-07-05T11:56:51.951Z,2856
2016-07-05T11:57:51.924Z,4248
2016-07-05T11:58:52.536Z,5700
2016-07-05T11:59:51.291Z,6416
2016-07-05T12:00:51.902Z,6804
2016-07-05T12:01:51.854Z,7244
2016-07-05T12:02:51.870Z,8072
2016-07-05T12:03:51.866Z,9036
2016-07-05T12:04:51.250Z,9112
2016-07-05T12:05:51.834Z,7952
2016-07-05T12:06:51.830Z,7252
2016-07-05T12:07:51.211Z,8152
2016-07-05T12:08:51.187Z,11408
2016-07-05T12:09:52.411Z,15888
2016-07-05T12:10:51.783Z,20064
2016-07-05T12:11:51.773Z,17280
2016-07-05T12:12:51.159Z,14272
2016-07-05T12:13:51.153Z,12544
2016-07-05T12:14:52.977Z,13208
2016-07-05T12:15:51.959Z,17216
2016-07-05T12:16:51.113Z,37792
2016-07-05T12:17:52.348Z,53024
2016-07-05T12:18:52.329Z,26336
2016-07-05T12:19:51.687Z,31936
2016-07-05T12:20:51.692Z,56320
2016-07-05T12:21:52.333Z,56864
2016-07-05T12:22:51.663Z,50272
2016-07-05T12:23:52.271Z,36352
2016-07-05T12:24:52.882Z,46496
2016-07-05T12:25:51.654Z,35200
2016-07-05T12:26:51.048Z,73504
2016-07-05T12:27:51.023Z,36096
2016-07-05T12:28:51.621Z,72320
2016-07-05T12:29:52.867Z,29312
2016-07-05T12:30:52.229Z,52352
2016-07-05T12:31:52.202Z,19424
2016-07-05T12:32:52.221Z,13268
2016-07-05T12:33:51.591Z,12156
2016-07-05T12:34:52.208Z,10552
2016-07-05T12:35:50.943Z,6096
2016-07-05T12:36:50.952Z,3852
2016-07-05T12:37:51.543Z,3576
2016-07-05T12:38:50.926Z,3320
2016-07-05T12:39:51.544Z,2952
2016-07-05T12:40:51.519Z,4176
2016-07-05T12:41:52.770Z,4288
2016-07-05T12:42:51.527Z,3120
2016-07-05T12:43:51.531Z,2240
2016-07-05T12:44:50.910Z,2072
2016-07-05T12:45:50.907Z,2696
2016-07-05T12:46:51.512Z,2272
2016-07-05T12:47:51.496Z,1852
2016-07-05T12:48:52.119Z,1680
2016-07-05T12:49:51.481Z,2052
2016-07-05T12:50:51.485Z,2184
2016-07-05T12:51:51.470Z,2136
2016-07-05T12:52:51.473Z,1588
2016-07-05T12:53:51.446Z,1464
2016-07-05T12:54:50.827Z,1792
2016-07-05T12:55:52.667Z,2108
2016-07-05T12:56:51.431Z,1884
2016-07-05T12:57:50.801Z,1940
2016-07-05T12:58:51.409Z,3776
2016-07-05T12:59:51.392Z,6472
2016-07-05T13:00:51.381Z,8136
2016-07-05T13:01:51.377Z,10668
2016-07-05T13:02:51.361Z,12576
2016-07-05T13:03:51.371Z,11716
2016-07-05T13:04:51.338Z,10964
2016-07-05T13:05:50.736Z,11264
2016-07-05T13:06:50.732Z,14024
2016-07-05T13:07:51.930Z,24608
2016-07-05T13:08:50.659Z,19584
2016-07-05T13:09:53.032Z,62400
2016-07-05T13:10:51.918Z,103872
2016-07-05T13:11:52.509Z,100224
2016-07-05T13:12:51.259Z,102048
2016-07-05T13:13:51.245Z,99264
2016-07-05T13:14:51.225Z,103488
2016-07-05T13:15:51.838Z,23968
2016-07-05T13:16:51.242Z,102624
2016-07-05T13:17:51.209Z,98304
2016-07-05T13:18:51.225Z,59680
2016-07-05T13:19:52.414Z,37952
2016-07-05T13:20:51.813Z,14216
2016-07-05T13:21:51.194Z,11288
2016-07-05T13:22:51.183Z,14076
2016-07-05T13:23:51.186Z,12312
2016-07-05T13:24:50.572Z,10788
2016-07-05T13:25:51.163Z,9288
2016-07-05T13:26:50.548Z,7472
2016-07-05T13:27:51.778Z,6476
2016-07-05T13:28:51.157Z,6828
2016-07-05T13:29:51.125Z,7760
2016-07-05T13:30:51.744Z,6984
2016-07-05T13:31:51.745Z,5376
2016-07-05T13:32:50.489Z,3768
2016-07-05T13:33:50.555Z,2404
2016-07-05T13:34:51.116Z,1756